sensor_id;sensor_type;location;lat;lon;timestamp;temperature;humidity
22290;DHT22;11313;50.116;8.424;2023-06-05T00:01:58;26.10;42.60
22290;DHT22;11313;50.116;8.424;2023-06-05T00:04:24;26.10;42.70
22290;DHT22;11313;50.116;8.424;2023-06-05T00:06:49;26.10;42.70
22290;DHT22;11313;50.116;8.424;2023-06-05T00:09:18;26.10;42.70
22290;DHT22;11313;50.116;8.424;2023-06-05T00:11:44;26.10;42.60
22290;DHT22;11313;50.116;8.424;2023-06-05T00:14:09;26.10;42.60
22290;DHT22;11313;50.116;8.424;2023-06-05T00:16:35;26.10;42.60
22290;DHT22;11313;50.116;8.424;2023-06-05T00:19:01;26.10;42.60
22290;DHT22;11313;50.116;8.424;2023-06-05T00:21:27;26.10;42.60
22290;DHT22;11313;50.116;8.424;2023-06-05T00:23:53;26.10;42.60
22290;DHT22;11313;50.116;8.424;2023-06-05T00:26:19;26.10;42.60
22290;DHT22;11313;50.116;8.424;2023-06-05T00:28:44;26.00;42.60
22290;DHT22;11313;50.116;8.424;2023-06-05T00:31:10;26.20;42.60
22290;DHT22;11313;50.116;8.424;2023-06-05T00:33:38;26.10;42.60
22290;DHT22;11313;50.116;8.424;2023-06-05T00:36:04;26.00;42.50
22290;DHT22;11313;50.116;8.424;2023-06-05T00:38:29;26.10;42.60
22290;DHT22;11313;50.116;8.424;2023-06-05T00:40:55;26.00;42.50
22290;DHT22;11313;50.116;8.424;2023-06-05T00:43:21;26.10;42.60
22290;DHT22;11313;50.116;8.424;2023-06-05T00:45:46;26.10;42.60
22290;DHT22;11313;50.116;8.424;2023-06-05T00:48:12;26.00;42.50
22290;DHT22;11313;50.116;8.424;2023-06-05T00:50:37;26.00;42.50
22290;DHT22;11313;50.116;8.424;2023-06-05T00:53:04;26.10;42.60
22290;DHT22;11313;50.116;8.424;2023-06-05T00:55:31;26.00;42.40
22290;DHT22;11313;50.116;8.424;2023-06-05T00:57:56;26.00;42.40
22290;DHT22;11313;50.116;8.424;2023-06-05T01:00:22;26.00;42.40
22290;DHT22;11313;50.116;8.424;2023-06-05T01:02:49;26.00;42.40
22290;DHT22;11313;50.116;8.424;2023-06-05T01:05:19;26.00;42.40
22290;DHT22;11313;50.116;8.424;2023-06-05T01:07:44;26.00;42.40
22290;DHT22;11313;50.116;8.424;2023-06-05T01:10:13;26.00;42.40
22290;DHT22;11313;50.116;8.424;2023-06-05T01:12:48;26.00;42.30
22290;DHT22;11313;50.116;8.424;2023-06-05T01:15:16;26.00;42.30
22290;DHT22;11313;50.116;8.424;2023-06-05T01:17:44;26.00;42.30
22290;DHT22;11313;50.116;8.424;2023-06-05T01:20:13;26.00;42.30
22290;DHT22;11313;50.116;8.424;2023-06-05T01:22:39;26.00;42.30
22290;DHT22;11313;50.116;8.424;2023-06-05T01:25:08;26.00;42.30
22290;DHT22;11313;50.116;8.424;2023-06-05T01:27:55;26.00;42.30
22290;DHT22;11313;50.116;8.424;2023-06-05T01:33:01;26.00;42.30
22290;DHT22;11313;50.116;8.424;2023-06-05T01:35:32;26.00;42.30
22290;DHT22;11313;50.116;8.424;2023-06-05T01:38:00;26.00;42.30
22290;DHT22;11313;50.116;8.424;2023-06-05T01:40:30;26.00;42.30
22290;DHT22;11313;50.116;8.424;2023-06-05T01:42:56;26.00;42.90
22290;DHT22;11313;50.116;8.424;2023-06-05T01:45:23;26.00;42.20
22290;DHT22;11313;50.116;8.424;2023-06-05T01:47:49;26.00;42.20
22290;DHT22;11313;50.116;8.424;2023-06-05T01:50:15;26.00;42.20
22290;DHT22;11313;50.116;8.424;2023-06-05T01:52:41;26.00;42.20
22290;DHT22;11313;50.116;8.424;2023-06-05T01:55:08;26.00;42.20
22290;DHT22;11313;50.116;8.424;2023-06-05T01:57:40;26.00;42.20
22290;DHT22;11313;50.116;8.424;2023-06-05T02:00:07;26.00;42.20
22290;DHT22;11313;50.116;8.424;2023-06-05T02:02:37;26.00;42.20
22290;DHT22;11313;50.116;8.424;2023-06-05T02:05:02;26.00;42.20
22290;DHT22;11313;50.116;8.424;2023-06-05T02:07:28;26.00;42.20
22290;DHT22;11313;50.116;8.424;2023-06-05T02:09:53;26.00;42.10
22290;DHT22;11313;50.116;8.424;2023-06-05T02:12:19;26.00;42.10
22290;DHT22;11313;50.116;8.424;2023-06-05T02:14:45;26.00;42.10
22290;DHT22;11313;50.116;8.424;2023-06-05T02:17:11;26.00;42.10
22290;DHT22;11313;50.116;8.424;2023-06-05T02:19:39;26.00;42.50
22290;DHT22;11313;50.116;8.424;2023-06-05T02:22:04;25.90;42.00
22290;DHT22;11313;50.116;8.424;2023-06-05T02:24:30;26.00;42.10
22290;DHT22;11313;50.116;8.424;2023-06-05T02:26:55;26.00;42.10
22290;DHT22;11313;50.116;8.424;2023-06-05T02:29:22;26.00;42.10
22290;DHT22;11313;50.116;8.424;2023-06-05T02:31:48;26.00;42.10
22290;DHT22;11313;50.116;8.424;2023-06-05T02:34:14;26.00;42.10
22290;DHT22;11313;50.116;8.424;2023-06-05T02:36:39;25.90;42.00
22290;DHT22;11313;50.116;8.424;2023-06-05T02:39:06;26.00;42.10
22290;DHT22;11313;50.116;8.424;2023-06-05T02:41:31;26.00;42.10
22290;DHT22;11313;50.116;8.424;2023-06-05T02:43:57;25.90;42.00
22290;DHT22;11313;50.116;8.424;2023-06-05T02:46:24;26.00;42.10
22290;DHT22;11313;50.116;8.424;2023-06-05T02:48:51;26.00;42.00
22290;DHT22;11313;50.116;8.424;2023-06-05T02:51:16;26.00;42.00
22290;DHT22;11313;50.116;8.424;2023-06-05T02:53:42;25.90;41.90
22290;DHT22;11313;50.116;8.424;2023-06-05T02:56:08;25.90;41.90
22290;DHT22;11313;50.116;8.424;2023-06-05T02:58:33;26.00;42.00
22290;DHT22;11313;50.116;8.424;2023-06-05T03:01:00;25.90;41.90
22290;DHT22;11313;50.116;8.424;2023-06-05T03:03:30;26.00;42.00
22290;DHT22;11313;50.116;8.424;2023-06-05T03:05:59;25.90;41.90
22290;DHT22;11313;50.116;8.424;2023-06-05T03:08:30;26.00;41.90
22290;DHT22;11313;50.116;8.424;2023-06-05T03:10:57;25.90;41.70
22290;DHT22;11313;50.116;8.424;2023-06-05T03:13:22;26.00;41.70
22290;DHT22;11313;50.116;8.424;2023-06-05T03:15:48;26.00;41.50
22290;DHT22;11313;50.116;8.424;2023-06-05T03:18:14;25.90;41.40
22290;DHT22;11313;50.116;8.424;2023-06-05T03:20:39;26.00;41.50
22290;DHT22;11313;50.116;8.424;2023-06-05T03:23:05;25.90;41.40
22290;DHT22;11313;50.116;8.424;2023-06-05T03:25:30;26.00;41.40
22290;DHT22;11313;50.116;8.424;2023-06-05T03:27:56;26.00;41.40
22290;DHT22;11313;50.116;8.424;2023-06-05T03:30:21;26.00;41.40
22290;DHT22;11313;50.116;8.424;2023-06-05T03:32:47;25.90;41.30
22290;DHT22;11313;50.116;8.424;2023-06-05T03:35:13;25.90;41.30
22290;DHT22;11313;50.116;8.424;2023-06-05T03:37:38;25.90;41.30
22290;DHT22;11313;50.116;8.424;2023-06-05T03:40:04;25.90;41.30
22290;DHT22;11313;50.116;8.424;2023-06-05T03:42:30;25.90;41.20
22290;DHT22;11313;50.116;8.424;2023-06-05T03:44:56;25.90;41.30
22290;DHT22;11313;50.116;8.424;2023-06-05T03:47:21;25.90;41.20
22290;DHT22;11313;50.116;8.424;2023-06-05T03:49:47;25.90;41.30
22290;DHT22;11313;50.116;8.424;2023-06-05T03:52:13;25.90;41.20
22290;DHT22;11313;50.116;8.424;2023-06-05T03:54:40;25.90;41.30
22290;DHT22;11313;50.116;8.424;2023-06-05T03:57:06;25.90;41.20
22290;DHT22;11313;50.116;8.424;2023-06-05T03:59:34;25.90;41.20
22290;DHT22;11313;50.116;8.424;2023-06-05T04:02:00;25.90;41.20
22290;DHT22;11313;50.116;8.424;2023-06-05T04:04:27;26.00;41.40
22290;DHT22;11313;50.116;8.424;2023-06-05T04:06:54;25.90;41.20
22290;DHT22;11313;50.116;8.424;2023-06-05T04:09:20;25.90;41.20
22290;DHT22;11313;50.116;8.424;2023-06-05T04:11:46;25.90;41.20
22290;DHT22;11313;50.116;8.424;2023-06-05T04:14:12;25.90;41.20
22290;DHT22;11313;50.116;8.424;2023-06-05T04:16:39;25.90;41.20
22290;DHT22;11313;50.116;8.424;2023-06-05T04:19:08;25.90;41.20
22290;DHT22;11313;50.116;8.424;2023-06-05T04:21:35;26.00;41.60
22290;DHT22;11313;50.116;8.424;2023-06-05T04:24:02;25.90;41.50
22290;DHT22;11313;50.116;8.424;2023-06-05T04:26:35;26.00;41.50
22290;DHT22;11313;50.116;8.424;2023-06-05T04:29:02;25.90;41.80
22290;DHT22;11313;50.116;8.424;2023-06-05T04:31:30;26.00;42.00
22290;DHT22;11313;50.116;8.424;2023-06-05T04:33:56;25.90;41.90
22290;DHT22;11313;50.116;8.424;2023-06-05T04:36:23;25.90;41.80
22290;DHT22;11313;50.116;8.424;2023-06-05T04:38:48;25.90;41.60
22290;DHT22;11313;50.116;8.424;2023-06-05T04:41:14;25.90;41.50
22290;DHT22;11313;50.116;8.424;2023-06-05T04:43:39;25.90;41.30
22290;DHT22;11313;50.116;8.424;2023-06-05T04:46:05;25.90;41.10
22290;DHT22;11313;50.116;8.424;2023-06-05T04:48:31;25.90;41.00
22290;DHT22;11313;50.116;8.424;2023-06-05T04:50:56;25.90;40.70
22290;DHT22;11313;50.116;8.424;2023-06-05T04:53:23;25.90;40.60
22290;DHT22;11313;50.116;8.424;2023-06-05T04:55:49;25.90;40.30
22290;DHT22;11313;50.116;8.424;2023-06-05T04:58:14;25.90;40.20
22290;DHT22;11313;50.116;8.424;2023-06-05T05:00:42;25.90;40.00
22290;DHT22;11313;50.116;8.424;2023-06-05T05:03:09;25.90;39.90
22290;DHT22;11313;50.116;8.424;2023-06-05T05:05:37;25.90;39.80
22290;DHT22;11313;50.116;8.424;2023-06-05T05:08:02;26.00;39.80
22290;DHT22;11313;50.116;8.424;2023-06-05T05:10:28;25.90;39.60
22290;DHT22;11313;50.116;8.424;2023-06-05T05:12:53;26.00;40.20
22290;DHT22;11313;50.116;8.424;2023-06-05T05:15:19;26.00;40.70
22290;DHT22;11313;50.116;8.424;2023-06-05T05:17:45;26.00;40.90
22290;DHT22;11313;50.116;8.424;2023-06-05T05:20:11;26.00;40.90
22290;DHT22;11313;50.116;8.424;2023-06-05T05:22:37;26.00;40.80
22290;DHT22;11313;50.116;8.424;2023-06-05T05:25:03;26.00;40.70
22290;DHT22;11313;50.116;8.424;2023-06-05T05:27:28;26.00;40.10
22290;DHT22;11313;50.116;8.424;2023-06-05T05:29:54;26.00;40.00
22290;DHT22;11313;50.116;8.424;2023-06-05T05:32:20;26.00;39.40
22290;DHT22;11313;50.116;8.424;2023-06-05T05:34:45;26.00;39.00
22290;DHT22;11313;50.116;8.424;2023-06-05T05:37:11;26.00;38.70
22290;DHT22;11313;50.116;8.424;2023-06-05T05:39:37;26.00;39.10
22290;DHT22;11313;50.116;8.424;2023-06-05T05:42:02;26.00;39.00
22290;DHT22;11313;50.116;8.424;2023-06-05T05:44:28;26.00;38.60
22290;DHT22;11313;50.116;8.424;2023-06-05T05:46:53;26.00;38.50
22290;DHT22;11313;50.116;8.424;2023-06-05T05:49:19;26.00;38.40
22290;DHT22;11313;50.116;8.424;2023-06-05T05:51:44;26.00;38.40
22290;DHT22;11313;50.116;8.424;2023-06-05T05:54:10;26.00;38.60
22290;DHT22;11313;50.116;8.424;2023-06-05T05:56:35;26.00;38.60
22290;DHT22;11313;50.116;8.424;2023-06-05T05:59:03;26.00;38.50
22290;DHT22;11313;50.116;8.424;2023-06-05T06:01:28;26.00;38.50
22290;DHT22;11313;50.116;8.424;2023-06-05T06:03:54;26.00;38.60
22290;DHT22;11313;50.116;8.424;2023-06-05T06:06:20;26.00;38.50
22290;DHT22;11313;50.116;8.424;2023-06-05T06:08:45;26.00;38.60
22290;DHT22;11313;50.116;8.424;2023-06-05T06:11:12;26.00;38.60
22290;DHT22;11313;50.116;8.424;2023-06-05T06:13:37;26.10;38.70
22290;DHT22;11313;50.116;8.424;2023-06-05T06:16:03;26.10;38.70
22290;DHT22;11313;50.116;8.424;2023-06-05T06:18:28;26.00;38.70
22290;DHT22;11313;50.116;8.424;2023-06-05T06:20:54;26.00;38.80
22290;DHT22;11313;50.116;8.424;2023-06-05T06:23:20;26.10;38.90
22290;DHT22;11313;50.116;8.424;2023-06-05T06:25:46;26.10;38.90
22290;DHT22;11313;50.116;8.424;2023-06-05T06:28:11;26.10;38.90
22290;DHT22;11313;50.116;8.424;2023-06-05T06:30:37;26.10;38.90
22290;DHT22;11313;50.116;8.424;2023-06-05T06:33:02;26.10;38.90
22290;DHT22;11313;50.116;8.424;2023-06-05T06:35:29;26.10;38.90
22290;DHT22;11313;50.116;8.424;2023-06-05T06:37:57;26.10;39.00
22290;DHT22;11313;50.116;8.424;2023-06-05T06:40:24;26.10;39.10
22290;DHT22;11313;50.116;8.424;2023-06-05T06:42:49;26.10;39.00
22290;DHT22;11313;50.116;8.424;2023-06-05T06:45:16;26.10;38.90
22290;DHT22;11313;50.116;8.424;2023-06-05T06:47:41;26.10;38.80
22290;DHT22;11313;50.116;8.424;2023-06-05T06:50:07;26.00;38.70
22290;DHT22;11313;50.116;8.424;2023-06-05T06:52:34;26.10;38.90
22290;DHT22;11313;50.116;8.424;2023-06-05T06:54:59;26.10;38.90
22290;DHT22;11313;50.116;8.424;2023-06-05T06:57:25;26.10;39.20
22290;DHT22;11313;50.116;8.424;2023-06-05T06:59:51;26.10;39.30
22290;DHT22;11313;50.116;8.424;2023-06-05T07:02:20;26.10;39.40
22290;DHT22;11313;50.116;8.424;2023-06-05T07:04:46;26.10;39.40
22290;DHT22;11313;50.116;8.424;2023-06-05T07:07:13;26.10;39.40
22290;DHT22;11313;50.116;8.424;2023-06-05T07:09:40;26.20;39.30
22290;DHT22;11313;50.116;8.424;2023-06-05T07:12:08;26.10;39.30
22290;DHT22;11313;50.116;8.424;2023-06-05T07:14:34;26.20;39.40
22290;DHT22;11313;50.116;8.424;2023-06-05T07:17:00;26.20;39.40
22290;DHT22;11313;50.116;8.424;2023-06-05T07:19:30;26.10;39.40
22290;DHT22;11313;50.116;8.424;2023-06-05T07:21:56;26.20;39.40
22290;DHT22;11313;50.116;8.424;2023-06-05T07:24:24;26.20;39.50
22290;DHT22;11313;50.116;8.424;2023-06-05T07:26:54;26.20;39.60
22290;DHT22;11313;50.116;8.424;2023-06-05T07:29:20;26.10;39.50
22290;DHT22;11313;50.116;8.424;2023-06-05T07:31:47;26.20;39.60
22290;DHT22;11313;50.116;8.424;2023-06-05T07:34:13;26.20;39.60
22290;DHT22;11313;50.116;8.424;2023-06-05T07:36:39;26.20;39.60
22290;DHT22;11313;50.116;8.424;2023-06-05T07:39:04;26.20;39.60
22290;DHT22;11313;50.116;8.424;2023-06-05T07:41:30;26.20;39.70
22290;DHT22;11313;50.116;8.424;2023-06-05T07:43:55;26.20;39.70
22290;DHT22;11313;50.116;8.424;2023-06-05T07:46:21;26.20;39.80
22290;DHT22;11313;50.116;8.424;2023-06-05T07:48:46;26.20;39.70
22290;DHT22;11313;50.116;8.424;2023-06-05T07:51:12;26.20;39.80
22290;DHT22;11313;50.116;8.424;2023-06-05T07:53:37;26.20;39.90
22290;DHT22;11313;50.116;8.424;2023-06-05T07:56:03;26.20;39.90
22290;DHT22;11313;50.116;8.424;2023-06-05T07:58:28;26.20;39.90
22290;DHT22;11313;50.116;8.424;2023-06-05T08:00:54;26.20;40.00
22290;DHT22;11313;50.116;8.424;2023-06-05T08:03:22;26.20;40.00
22290;DHT22;11313;50.116;8.424;2023-06-05T08:05:51;26.20;40.00
22290;DHT22;11313;50.116;8.424;2023-06-05T08:08:17;26.20;40.10
22290;DHT22;11313;50.116;8.424;2023-06-05T08:10:43;26.20;40.00
22290;DHT22;11313;50.116;8.424;2023-06-05T08:13:09;26.20;40.10
22290;DHT22;11313;50.116;8.424;2023-06-05T08:15:35;26.20;40.20
22290;DHT22;11313;50.116;8.424;2023-06-05T08:18:01;26.20;40.10
22290;DHT22;11313;50.116;8.424;2023-06-05T08:20:27;26.20;40.10
22290;DHT22;11313;50.116;8.424;2023-06-05T08:22:54;26.30;40.20
22290;DHT22;11313;50.116;8.424;2023-06-05T08:25:19;26.20;40.10
22290;DHT22;11313;50.116;8.424;2023-06-05T08:27:45;26.20;40.20
22290;DHT22;11313;50.116;8.424;2023-06-05T08:30:10;26.20;40.20
22290;DHT22;11313;50.116;8.424;2023-06-05T08:32:36;26.20;40.20
22290;DHT22;11313;50.116;8.424;2023-06-05T08:35:02;26.20;40.30
22290;DHT22;11313;50.116;8.424;2023-06-05T08:37:28;26.30;40.40
22290;DHT22;11313;50.116;8.424;2023-06-05T08:39:53;26.20;40.30
22290;DHT22;11313;50.116;8.424;2023-06-05T08:42:19;26.30;40.40
22290;DHT22;11313;50.116;8.424;2023-06-05T08:44:48;26.30;40.40
22290;DHT22;11313;50.116;8.424;2023-06-05T08:47:14;26.30;40.50
22290;DHT22;11313;50.116;8.424;2023-06-05T08:49:41;26.20;40.50
22290;DHT22;11313;50.116;8.424;2023-06-05T08:52:07;26.20;40.30
22290;DHT22;11313;50.116;8.424;2023-06-05T08:54:42;26.20;40.40
22290;DHT22;11313;50.116;8.424;2023-06-05T08:57:08;26.20;40.40
22290;DHT22;11313;50.116;8.424;2023-06-05T08:59:34;26.30;40.60
22290;DHT22;11313;50.116;8.424;2023-06-05T09:02:00;26.30;40.60
22290;DHT22;11313;50.116;8.424;2023-06-05T09:04:26;26.20;40.50
22290;DHT22;11313;50.116;8.424;2023-06-05T09:07:01;26.30;40.60
22290;DHT22;11313;50.116;8.424;2023-06-05T09:09:27;26.30;40.70
22290;DHT22;11313;50.116;8.424;2023-06-05T09:12:06;26.30;40.70
22290;DHT22;11313;50.116;8.424;2023-06-05T09:14:32;26.20;40.60
22290;DHT22;11313;50.116;8.424;2023-06-05T09:17:01;26.30;40.70
22290;DHT22;11313;50.116;8.424;2023-06-05T09:19:37;26.20;40.70
22290;DHT22;11313;50.116;8.424;2023-06-05T09:22:03;26.30;40.70
22290;DHT22;11313;50.116;8.424;2023-06-05T09:24:28;26.30;40.80
22290;DHT22;11313;50.116;8.424;2023-06-05T09:27:00;26.20;40.80
22290;DHT22;11313;50.116;8.424;2023-06-05T09:29:37;26.30;41.10
22290;DHT22;11313;50.116;8.424;2023-06-05T09:32:08;26.30;40.80
22290;DHT22;11313;50.116;8.424;2023-06-05T09:37:02;26.30;40.80
22290;DHT22;11313;50.116;8.424;2023-06-05T09:39:29;26.30;40.80
22290;DHT22;11313;50.116;8.424;2023-06-05T09:41:56;26.30;40.90
22290;DHT22;11313;50.116;8.424;2023-06-05T09:44:23;26.20;40.90
22290;DHT22;11313;50.116;8.424;2023-06-05T09:46:56;26.20;40.90
22290;DHT22;11313;50.116;8.424;2023-06-05T09:49:30;26.20;41.00
22290;DHT22;11313;50.116;8.424;2023-06-05T09:51:57;26.30;40.90
22290;DHT22;11313;50.116;8.424;2023-06-05T09:54:26;26.20;41.00
22290;DHT22;11313;50.116;8.424;2023-06-05T09:56:59;26.30;41.00
22290;DHT22;11313;50.116;8.424;2023-06-05T09:59:28;26.30;41.10
22290;DHT22;11313;50.116;8.424;2023-06-05T10:01:55;26.30;41.10
22290;DHT22;11313;50.116;8.424;2023-06-05T10:04:23;26.20;41.00
22290;DHT22;11313;50.116;8.424;2023-06-05T10:06:51;26.30;41.10
22290;DHT22;11313;50.116;8.424;2023-06-05T10:09:17;26.30;41.10
22290;DHT22;11313;50.116;8.424;2023-06-05T10:11:43;26.20;41.00
22290;DHT22;11313;50.116;8.424;2023-06-05T10:14:09;26.30;41.20
22290;DHT22;11313;50.116;8.424;2023-06-05T10:16:35;26.20;41.10
22290;DHT22;11313;50.116;8.424;2023-06-05T10:19:02;26.20;41.10
22290;DHT22;11313;50.116;8.424;2023-06-05T10:21:28;26.20;41.10
22290;DHT22;11313;50.116;8.424;2023-06-05T10:24:06;26.30;41.30
22290;DHT22;11313;50.116;8.424;2023-06-05T10:33:08;26.30;41.40
22290;DHT22;11313;50.116;8.424;2023-06-05T10:38:35;26.20;41.30
22290;DHT22;11313;50.116;8.424;2023-06-05T10:41:04;26.30;41.40
22290;DHT22;11313;50.116;8.424;2023-06-05T10:43:49;26.30;41.50
22290;DHT22;11313;50.116;8.424;2023-06-05T10:49:08;26.20;41.40
22290;DHT22;11313;50.116;8.424;2023-06-05T10:54:03;26.20;41.40
22290;DHT22;11313;50.116;8.424;2023-06-05T10:59:43;26.30;41.50
22290;DHT22;11313;50.116;8.424;2023-06-05T11:07:18;26.20;41.50
22290;DHT22;11313;50.116;8.424;2023-06-05T11:17:46;26.30;41.70
22290;DHT22;11313;50.116;8.424;2023-06-05T11:27:51;26.30;41.70
22290;DHT22;11313;50.116;8.424;2023-06-05T11:30:19;26.30;41.80
22290;DHT22;11313;50.116;8.424;2023-06-05T11:32:45;26.30;41.80
22290;DHT22;11313;50.116;8.424;2023-06-05T11:35:11;26.30;41.80
22290;DHT22;11313;50.116;8.424;2023-06-05T11:37:38;26.30;41.80
22290;DHT22;11313;50.116;8.424;2023-06-05T11:40:04;26.30;41.80
22290;DHT22;11313;50.116;8.424;2023-06-05T11:42:33;26.30;41.80
22290;DHT22;11313;50.116;8.424;2023-06-05T11:44:59;26.30;41.90
22290;DHT22;11313;50.116;8.424;2023-06-05T11:47:26;26.30;41.90
22290;DHT22;11313;50.116;8.424;2023-06-05T11:49:51;26.30;41.90
22290;DHT22;11313;50.116;8.424;2023-06-05T11:52:18;26.30;41.90
22290;DHT22;11313;50.116;8.424;2023-06-05T11:54:44;26.30;41.90
22290;DHT22;11313;50.116;8.424;2023-06-05T11:57:18;26.30;41.90
22290;DHT22;11313;50.116;8.424;2023-06-05T11:59:45;26.30;41.90
22290;DHT22;11313;50.116;8.424;2023-06-05T12:02:10;26.30;41.90
22290;DHT22;11313;50.116;8.424;2023-06-05T12:04:39;26.30;41.90
22290;DHT22;11313;50.116;8.424;2023-06-05T12:07:06;26.30;41.90
22290;DHT22;11313;50.116;8.424;2023-06-05T12:09:32;26.30;41.90
22290;DHT22;11313;50.116;8.424;2023-06-05T12:12:05;26.30;41.90
22290;DHT22;11313;50.116;8.424;2023-06-05T12:14:34;26.30;42.00
22290;DHT22;11313;50.116;8.424;2023-06-05T12:17:00;26.30;42.00
22290;DHT22;11313;50.116;8.424;2023-06-05T12:19:28;26.30;42.00
22290;DHT22;11313;50.116;8.424;2023-06-05T12:22:05;26.30;42.00
22290;DHT22;11313;50.116;8.424;2023-06-05T12:24:31;26.30;42.00
22290;DHT22;11313;50.116;8.424;2023-06-05T12:27:02;26.30;42.00
22290;DHT22;11313;50.116;8.424;2023-06-05T12:29:31;26.30;42.10
22290;DHT22;11313;50.116;8.424;2023-06-05T12:31:59;26.30;42.10
22290;DHT22;11313;50.116;8.424;2023-06-05T12:34:47;26.30;42.10
22290;DHT22;11313;50.116;8.424;2023-06-05T12:39:55;26.30;42.10
22290;DHT22;11313;50.116;8.424;2023-06-05T12:42:21;26.30;42.10
22290;DHT22;11313;50.116;8.424;2023-06-05T12:44:47;26.30;42.10
22290;DHT22;11313;50.116;8.424;2023-06-05T12:47:12;26.30;42.10
22290;DHT22;11313;50.116;8.424;2023-06-05T12:49:38;26.30;42.10
22290;DHT22;11313;50.116;8.424;2023-06-05T12:52:05;26.30;42.10
22290;DHT22;11313;50.116;8.424;2023-06-05T12:54:32;26.30;42.20
22290;DHT22;11313;50.116;8.424;2023-06-05T12:56:57;26.30;42.20
22290;DHT22;11313;50.116;8.424;2023-06-05T12:59:23;26.30;42.20
22290;DHT22;11313;50.116;8.424;2023-06-05T13:01:49;26.30;42.20
22290;DHT22;11313;50.116;8.424;2023-06-05T13:04:14;26.30;42.20
22290;DHT22;11313;50.116;8.424;2023-06-05T13:06:40;26.30;42.20
22290;DHT22;11313;50.116;8.424;2023-06-05T13:09:06;26.30;42.20
22290;DHT22;11313;50.116;8.424;2023-06-05T13:11:32;26.30;42.20
22290;DHT22;11313;50.116;8.424;2023-06-05T13:13:57;26.30;42.20
22290;DHT22;11313;50.116;8.424;2023-06-05T13:16:23;26.30;42.20
22290;DHT22;11313;50.116;8.424;2023-06-05T13:18:48;26.30;42.30
22290;DHT22;11313;50.116;8.424;2023-06-05T13:21:14;26.30;42.30
22290;DHT22;11313;50.116;8.424;2023-06-05T13:23:39;26.30;42.30
22290;DHT22;11313;50.116;8.424;2023-06-05T13:26:05;26.30;42.30
22290;DHT22;11313;50.116;8.424;2023-06-05T13:28:30;26.30;42.30
22290;DHT22;11313;50.116;8.424;2023-06-05T13:30:56;26.30;42.30
22290;DHT22;11313;50.116;8.424;2023-06-05T13:33:22;26.30;42.30
22290;DHT22;11313;50.116;8.424;2023-06-05T13:35:48;26.30;42.30
22290;DHT22;11313;50.116;8.424;2023-06-05T13:38:13;26.40;42.40
22290;DHT22;11313;50.116;8.424;2023-06-05T13:40:38;26.30;42.30
22290;DHT22;11313;50.116;8.424;2023-06-05T13:43:06;26.40;42.40
22290;DHT22;11313;50.116;8.424;2023-06-05T13:45:32;26.40;42.40
22290;DHT22;11313;50.116;8.424;2023-06-05T13:47:57;26.40;42.40
22290;DHT22;11313;50.116;8.424;2023-06-05T13:50:23;26.30;42.30
22290;DHT22;11313;50.116;8.424;2023-06-05T13:52:48;26.40;42.40
22290;DHT22;11313;50.116;8.424;2023-06-05T13:55:14;26.40;42.40
22290;DHT22;11313;50.116;8.424;2023-06-05T13:57:40;26.40;42.40
22290;DHT22;11313;50.116;8.424;2023-06-05T14:00:06;26.40;42.40
22290;DHT22;11313;50.116;8.424;2023-06-05T14:02:32;26.40;42.40
22290;DHT22;11313;50.116;8.424;2023-06-05T14:04:58;26.40;42.40
22290;DHT22;11313;50.116;8.424;2023-06-05T14:07:23;26.40;42.40
22290;DHT22;11313;50.116;8.424;2023-06-05T14:09:49;26.30;42.30
22290;DHT22;11313;50.116;8.424;2023-06-05T14:12:15;26.40;42.40
22290;DHT22;11313;50.116;8.424;2023-06-05T14:14:41;26.40;42.40
22290;DHT22;11313;50.116;8.424;2023-06-05T14:17:07;26.40;42.40
22290;DHT22;11313;50.116;8.424;2023-06-05T14:19:32;26.40;42.50
22290;DHT22;11313;50.116;8.424;2023-06-05T14:21:58;26.40;42.50
22290;DHT22;11313;50.116;8.424;2023-06-05T14:24:24;26.30;42.40
22290;DHT22;11313;50.116;8.424;2023-06-05T14:26:49;26.40;42.50
22290;DHT22;11313;50.116;8.424;2023-06-05T14:29:15;26.40;42.50
22290;DHT22;11313;50.116;8.424;2023-06-05T14:31:40;26.40;42.50
22290;DHT22;11313;50.116;8.424;2023-06-05T14:34:06;26.40;42.50
22290;DHT22;11313;50.116;8.424;2023-06-05T14:36:31;26.40;42.50
22290;DHT22;11313;50.116;8.424;2023-06-05T14:38:57;26.40;42.50
22290;DHT22;11313;50.116;8.424;2023-06-05T14:41:23;26.40;42.50
22290;DHT22;11313;50.116;8.424;2023-06-05T14:43:48;26.40;42.60
22290;DHT22;11313;50.116;8.424;2023-06-05T14:46:14;26.40;42.50
22290;DHT22;11313;50.116;8.424;2023-06-05T14:48:39;26.40;42.50
22290;DHT22;11313;50.116;8.424;2023-06-05T14:51:07;26.40;42.50
22290;DHT22;11313;50.116;8.424;2023-06-05T14:53:33;26.40;42.50
22290;DHT22;11313;50.116;8.424;2023-06-05T14:55:58;26.40;42.50
22290;DHT22;11313;50.116;8.424;2023-06-05T14:58:24;26.40;42.50
22290;DHT22;11313;50.116;8.424;2023-06-05T15:00:49;26.40;42.50
22290;DHT22;11313;50.116;8.424;2023-06-05T15:03:15;26.40;42.50
22290;DHT22;11313;50.116;8.424;2023-06-05T15:05:40;26.40;42.50
22290;DHT22;11313;50.116;8.424;2023-06-05T15:08:06;26.40;42.50
22290;DHT22;11313;50.116;8.424;2023-06-05T15:10:32;26.40;42.50
22290;DHT22;11313;50.116;8.424;2023-06-05T15:12:57;26.40;42.60
22290;DHT22;11313;50.116;8.424;2023-06-05T15:15:24;26.40;42.50
22290;DHT22;11313;50.116;8.424;2023-06-05T15:17:49;26.40;42.60
22290;DHT22;11313;50.116;8.424;2023-06-05T15:20:18;26.40;42.60
22290;DHT22;11313;50.116;8.424;2023-06-05T15:22:43;26.50;42.60
22290;DHT22;11313;50.116;8.424;2023-06-05T15:25:09;26.40;42.50
22290;DHT22;11313;50.116;8.424;2023-06-05T15:27:34;26.40;42.60
22290;DHT22;11313;50.116;8.424;2023-06-05T15:30:00;26.40;42.50
22290;DHT22;11313;50.116;8.424;2023-06-05T15:32:25;26.40;42.60
22290;DHT22;11313;50.116;8.424;2023-06-05T15:34:51;26.40;42.60
22290;DHT22;11313;50.116;8.424;2023-06-05T15:37:17;26.50;42.60
22290;DHT22;11313;50.116;8.424;2023-06-05T15:39:42;26.40;42.60
22290;DHT22;11313;50.116;8.424;2023-06-05T15:42:08;26.50;42.60
22290;DHT22;11313;50.116;8.424;2023-06-05T15:44:37;26.50;42.60
22290;DHT22;11313;50.116;8.424;2023-06-05T15:47:06;26.50;42.60
22290;DHT22;11313;50.116;8.424;2023-06-05T15:49:32;26.40;42.60
22290;DHT22;11313;50.116;8.424;2023-06-05T15:51:58;26.50;42.60
22290;DHT22;11313;50.116;8.424;2023-06-05T15:54:23;26.50;42.60
22290;DHT22;11313;50.116;8.424;2023-06-05T15:57:15;26.50;42.60
22290;DHT22;11313;50.116;8.424;2023-06-05T15:59:40;26.50;42.60
22290;DHT22;11313;50.116;8.424;2023-06-05T16:02:06;26.50;42.70
22290;DHT22;11313;50.116;8.424;2023-06-05T16:04:31;26.50;42.70
22290;DHT22;11313;50.116;8.424;2023-06-05T16:06:59;26.50;42.70
22290;DHT22;11313;50.116;8.424;2023-06-05T16:09:24;26.50;42.70
22290;DHT22;11313;50.116;8.424;2023-06-05T16:11:50;26.50;42.70
22290;DHT22;11313;50.116;8.424;2023-06-05T16:14:15;26.50;42.70